< Typhoon 197109 1971 Season Typhoon 197111 >
Typhoon 197110 (FREDA)
General InformationTrack Information on Google Maps || Disaster Info.ResourceGoogle EarthGE AnimationAtom FeedGeoJSON
Detalied Best Track (Time Zone = UTC)
Year Month Day Hour Lat. Long. Pressure (hPa) Wind (kt) Class Image Chart
1971 6 9 00 10.0 135.0 1012 0 2 -- Chart
1971 6 9 06 10.0 134.3 1009 0 2 -- Chart
1971 6 9 12 10.0 133.6 1008 0 2 -- Chart
1971 6 9 18 10.0 133.0 1008 0 2 -- Chart
1971 6 10 00 10.0 132.5 1007 0 2 -- Chart
1971 6 10 06 10.0 132.0 1006 0 2 -- Chart
1971 6 10 12 10.0 131.5 1006 0 2 -- Chart
1971 6 10 18 9.8 130.6 1006 0 2 -- Chart
1971 6 11 00 9.8 130.0 1006 0 2 -- Chart
1971 6 11 06 10.0 129.6 1006 0 2 -- Chart
1971 6 11 12 10.7 129.5 1006 0 2 -- Chart
1971 6 11 18 11.3 129.4 1006 0 2 -- Chart
1971 6 12 00 11.8 129.1 1006 0 2 -- Chart
1971 6 12 06 12.2 128.8 1006 0 2 -- Chart
1971 6 12 12 12.6 128.3 1006 0 2 -- Chart
1971 6 12 18 12.7 128.2 1006 0 2 -- Chart
1971 6 13 00 13.0 128.0 1006 0 2 -- Chart
1971 6 13 06 13.5 128.0 1006 0 2 -- Chart
1971 6 13 12 14.0 127.8 1006 0 2 -- Chart
1971 6 13 18 14.5 127.5 1004 0 2 -- Chart
1971 6 14 00 15.0 127.0 1003 0 2 -- Chart
1971 6 14 06 15.5 126.6 1001 0 2 -- Chart
1971 6 14 12 16.1 125.7 1000 0 9 -- Chart
1971 6 14 18 16.5 125.1 995 0 9 -- Chart
1971 6 15 00 16.5 123.7 990 0 9 -- Chart
1971 6 15 06 17.1 122.8 990 0 9 -- Chart
1971 6 15 12 17.5 122.1 990 0 9 -- Chart
1971 6 15 18 17.7 121.0 990 0 9 -- Chart
1971 6 16 00 18.0 119.5 990 0 9 -- Chart
1971 6 16 06 18.9 118.3 985 0 9 -- Chart
1971 6 16 12 19.3 117.2 985 0 9 -- Chart
1971 6 16 18 20.0 116.2 985 0 9 -- Chart
1971 6 17 00 20.5 115.7 980 0 9 -- Chart
1971 6 17 06 20.8 115.0 985 0 9 -- Chart
1971 6 17 12 21.3 114.7 985 0 9 -- Chart
1971 6 17 18 22.0 114.0 985 0 9 -- Chart
1971 6 18 00 23.0 113.3 990 0 9 -- Chart
1971 6 18 06 23.9 112.9 992 0 2 -- Chart
1971 6 18 12 25.4 112.4 994 0 2 -- Chart
1971 6 18 18 26.5 112.5 996 0 2 -- Chart
1971 6 19 00 27.5 113.6 998 0 2 -- Chart
1971 6 19 06 28.3 115.0 1000 0 2 -- Chart
1971 6 19 12 29.1 116.3 1001 0 6 -- Chart
Japan Meteorological Agency Best Track Data | Correction Date : 1989-06-01
< Typhoon 197109 1971 Season Typhoon 197111 >

Help